createdAt,value
2022-12-11T00:01:35.788Z,197.52
2022-12-11T00:04:03.260Z,175.45
2022-12-11T00:06:30.665Z,298.98
2022-12-11T00:08:58.146Z,162.57
2022-12-11T00:11:25.869Z,218.27
2022-12-11T00:13:56.222Z,222.30
2022-12-11T00:16:26.912Z,234.05
2022-12-11T00:18:55.631Z,177.40
2022-12-11T00:21:23.024Z,148.88
2022-12-11T00:23:50.725Z,209.80
2022-12-11T00:26:18.306Z,271.02
2022-12-11T00:28:45.979Z,169.90
2022-12-11T00:31:17.730Z,271.95
2022-12-11T00:33:46.283Z,196.85
2022-12-11T00:36:17.552Z,258.50
2022-12-11T00:38:44.992Z,296.08
2022-12-11T00:41:13.002Z,260.90
2022-12-11T00:43:40.913Z,316.50
2022-12-11T00:46:08.897Z,315.42
2022-12-11T00:48:36.421Z,204.00
2022-12-11T00:51:04.058Z,217.15
2022-12-11T00:53:31.531Z,212.40
2022-12-11T00:55:58.994Z,199.60
2022-12-11T00:58:26.555Z,196.07
2022-12-11T01:00:54.310Z,231.20
2022-12-11T01:03:21.891Z,202.23
2022-12-11T01:05:54.597Z,217.60
2022-12-11T01:08:22.477Z,190.25
2022-12-11T01:10:50.083Z,194.75
2022-12-11T01:13:17.694Z,202.68
2022-12-11T01:15:45.928Z,279.90
2022-12-11T01:18:15.437Z,247.45
2022-12-11T01:20:43.353Z,234.25
2022-12-11T01:23:13.243Z,170.52
2022-12-11T01:25:42.028Z,153.13
2022-12-11T01:28:10.355Z,162.38
2022-12-11T01:30:37.938Z,227.10
2022-12-11T01:33:05.515Z,163.43
2022-12-11T01:35:35.143Z,232.38
2022-12-11T01:38:02.888Z,173.77
2022-12-11T01:40:30.448Z,173.50
2022-12-11T01:42:57.908Z,160.88
2022-12-11T01:45:33.220Z,254.93
2022-12-11T01:48:12.416Z,238.52
2022-12-11T01:50:57.615Z,188.75
2022-12-11T01:53:33.375Z,177.50
2022-12-11T01:56:02.097Z,179.50
2022-12-11T01:58:38.739Z,185.25
2022-12-11T02:01:06.297Z,171.45
2022-12-11T02:03:33.861Z,200.90
2022-12-11T02:06:02.687Z,189.90
2022-12-11T02:08:30.172Z,179.90
2022-12-11T02:11:20.249Z,177.80
2022-12-11T02:14:00.503Z,171.27
2022-12-11T02:16:50.711Z,160.25
2022-12-11T02:19:55.808Z,182.98
2022-12-11T02:23:05.061Z,175.73
2022-12-11T02:26:22.066Z,173.68
2022-12-11T02:28:57.390Z,175.75
2022-12-11T02:32:00.561Z,150.40
2022-12-11T02:34:41.649Z,161.90
2022-12-11T02:37:21.442Z,175.13
2022-12-11T02:39:54.230Z,153.68
2022-12-11T02:42:27.156Z,150.50
2022-12-11T02:44:59.087Z,138.77
2022-12-11T02:47:32.068Z,163.07
2022-12-11T02:50:03.276Z,123.85
2022-12-11T02:52:32.365Z,159.65
2022-12-11T02:55:02.979Z,151.90
2022-12-11T02:57:42.100Z,141.18
2022-12-11T03:00:11.141Z,151.48
2022-12-11T03:02:41.065Z,135.75
2022-12-11T03:05:12.093Z,137.13
2022-12-11T03:07:43.742Z,141.52
2022-12-11T03:10:18.665Z,127.47
2022-12-11T03:12:53.863Z,118.32
2022-12-11T03:15:33.864Z,108.93
2022-12-11T03:18:34.336Z,111.05
2022-12-11T03:21:06.992Z,106.72
2022-12-11T03:24:02.775Z,114.38
2022-12-11T03:26:40.503Z,104.32
2022-12-11T03:29:23.189Z,100.70
2022-12-11T03:31:59.010Z,106.53
2022-12-11T03:34:45.181Z,107.43
2022-12-11T03:37:15.322Z,102.32
2022-12-11T03:39:52.114Z,106.00
2022-12-11T03:42:24.337Z,100.45
2022-12-11T03:44:56.904Z,101.82
2022-12-11T03:47:27.601Z,90.97
2022-12-11T03:49:58.484Z,103.97
2022-12-11T03:52:29.163Z,102.70
2022-12-11T03:55:03.075Z,101.35
2022-12-11T03:57:37.057Z,107.68
2022-12-11T04:00:10.695Z,103.35
2022-12-11T04:02:41.999Z,106.78
2022-12-11T04:05:11.327Z,99.45
2022-12-11T04:07:38.917Z,100.90
2022-12-11T04:10:06.648Z,90.90
2022-12-11T04:12:34.108Z,99.80
2022-12-11T04:15:02.718Z,90.15
2022-12-11T04:17:52.418Z,87.90
2022-12-11T04:20:40.038Z,79.55
2022-12-11T04:23:33.084Z,87.55
2022-12-11T04:26:15.770Z,80.68
2022-12-11T04:28:45.683Z,89.50
2022-12-11T04:31:17.184Z,81.40
2022-12-11T04:33:44.782Z,84.13
2022-12-11T04:36:13.603Z,84.93
2022-12-11T04:38:41.512Z,85.60
2022-12-11T04:41:15.918Z,85.10
2022-12-11T04:43:47.229Z,84.00
2022-12-11T04:46:19.111Z,80.88
2022-12-11T04:51:20.660Z,72.72
2022-12-11T04:53:48.238Z,69.68
2022-12-11T04:56:17.058Z,77.03
2022-12-11T04:58:46.374Z,81.20
2022-12-11T05:01:20.198Z,78.20
2022-12-11T05:03:48.017Z,79.78
2022-12-11T05:06:15.825Z,72.57
2022-12-11T05:08:45.372Z,92.68
2022-12-11T05:11:15.979Z,68.90
2022-12-11T05:13:44.898Z,90.17
2022-12-11T05:16:16.739Z,69.30
2022-12-11T05:18:44.838Z,75.95
2022-12-11T05:21:15.127Z,78.50
2022-12-11T05:23:43.306Z,84.88
2022-12-11T05:26:21.276Z,77.95
2022-12-11T05:28:54.217Z,68.47
2022-12-11T05:31:26.014Z,82.03
2022-12-11T05:33:54.268Z,71.85
2022-12-11T05:36:32.090Z,73.72
2022-12-11T05:39:01.463Z,75.72
2022-12-11T05:41:31.386Z,70.53
2022-12-11T05:43:59.025Z,69.60
2022-12-11T05:46:30.826Z,60.55
2022-12-11T05:49:01.532Z,66.63
2022-12-11T05:51:30.494Z,61.92
2022-12-11T05:53:59.467Z,71.65
2022-12-11T05:56:33.357Z,62.83
2022-12-11T05:59:02.712Z,59.63
2022-12-11T06:01:50.531Z,57.05
2022-12-11T06:04:18.058Z,54.88
2022-12-11T06:06:45.487Z,60.20
2022-12-11T06:09:17.208Z,54.35
2022-12-11T06:14:13.170Z,61.58
2022-12-11T06:16:40.970Z,64.63
2022-12-11T06:19:15.091Z,60.55
2022-12-11T06:21:42.583Z,62.17
2022-12-11T06:24:12.684Z,62.55
2022-12-11T06:26:40.231Z,64.43
2022-12-11T06:29:12.561Z,66.60
2022-12-11T06:31:40.608Z,57.45
2022-12-11T06:34:09.187Z,55.20
2022-12-11T06:36:36.866Z,53.78
2022-12-11T06:39:04.355Z,48.78
2022-12-11T06:41:31.830Z,45.75
2022-12-11T06:43:59.245Z,39.40
2022-12-11T06:46:26.675Z,39.95
2022-12-11T06:48:54.115Z,35.70
2022-12-11T06:51:23.550Z,39.03
2022-12-11T06:54:05.576Z,35.83
2022-12-11T06:56:38.817Z,37.60
2022-12-11T06:59:13.775Z,39.83
2022-12-11T07:01:51.942Z,38.30
2022-12-11T07:09:23.409Z,29.55
2022-12-11T07:12:04.067Z,30.35
2022-12-11T07:18:36.131Z,30.05
2022-12-11T07:21:35.980Z,27.98
2022-12-11T07:24:11.679Z,30.52
2022-12-11T07:26:45.653Z,28.55
2022-12-11T07:29:29.526Z,28.38
2022-12-11T07:32:44.802Z,28.13
2022-12-11T07:35:12.715Z,30.83
2022-12-11T07:37:42.638Z,29.52
2022-12-11T07:40:15.606Z,30.42
2022-12-11T07:42:46.543Z,27.67
2022-12-11T07:45:15.687Z,30.13
2022-12-11T07:47:45.573Z,26.80
2022-12-11T07:50:15.585Z,28.95
2022-12-11T07:52:45.273Z,29.05
2022-12-11T07:55:14.916Z,27.73
2022-12-11T07:58:14.651Z,28.17
2022-12-11T08:00:40.673Z,28.08
2022-12-11T08:03:08.216Z,29.63
2022-12-11T08:05:57.783Z,27.70
2022-12-11T08:08:48.321Z,28.95
2022-12-11T08:11:32.524Z,27.65
2022-12-11T08:14:19.858Z,29.20
2022-12-11T08:16:50.390Z,26.92
2022-12-11T08:19:21.052Z,28.40
2022-12-11T08:21:51.574Z,27.50
2022-12-11T08:24:20.837Z,27.92
2022-12-11T08:26:49.069Z,26.67
2022-12-11T08:29:18.742Z,27.63
2022-12-11T08:31:46.220Z,26.20
2022-12-11T08:34:14.181Z,28.42
2022-12-11T08:36:41.953Z,26.73
2022-12-11T08:39:09.563Z,27.23
2022-12-11T08:41:38.369Z,28.10
2022-12-11T08:44:06.173Z,30.20
2022-12-11T08:46:33.944Z,28.25
2022-12-11T08:49:01.481Z,29.88
2022-12-11T08:51:30.405Z,27.35
2022-12-11T08:54:01.108Z,28.60
2022-12-11T08:56:30.156Z,29.98
2022-12-11T08:59:01.118Z,29.40
2022-12-11T09:01:29.369Z,27.92
2022-12-11T09:03:57.325Z,35.08
2022-12-11T09:06:27.734Z,33.53
2022-12-11T09:08:58.380Z,30.15
2022-12-11T09:11:30.841Z,32.70
2022-12-11T09:14:03.561Z,32.85
2022-12-11T09:16:40.094Z,33.42
2022-12-11T09:19:13.706Z,31.98
2022-12-11T09:21:42.861Z,30.50
2022-12-11T09:24:12.547Z,30.17
2022-12-11T09:26:40.667Z,33.22
2022-12-11T09:29:08.907Z,32.05
2022-12-11T09:31:46.920Z,31.48
2022-12-11T09:34:17.646Z,32.75
2022-12-11T09:36:45.131Z,31.42
2022-12-11T09:39:16.278Z,32.33
2022-12-11T09:42:07.527Z,33.53
2022-12-11T09:44:50.584Z,31.90
2022-12-11T09:47:31.817Z,30.58
2022-12-11T09:50:10.443Z,32.50
2022-12-11T09:52:53.053Z,30.70
2022-12-11T09:55:24.630Z,32.05
2022-12-11T09:58:27.401Z,32.95
2022-12-11T10:01:22.098Z,32.08
2022-12-11T10:04:41.432Z,29.77
2022-12-11T10:07:18.534Z,29.83
2022-12-11T10:10:03.357Z,30.83
2022-12-11T10:13:11.690Z,30.88
2022-12-11T10:16:07.466Z,31.83
2022-12-11T10:18:36.611Z,32.25
2022-12-11T10:21:04.546Z,28.75
2022-12-11T10:23:44.691Z,31.65
2022-12-11T10:26:19.986Z,33.20
2022-12-11T10:28:47.919Z,35.67
2022-12-11T10:31:25.950Z,32.28
2022-12-11T10:34:04.075Z,33.03
2022-12-11T10:36:36.866Z,31.27
2022-12-11T10:39:15.326Z,33.45
2022-12-11T10:41:48.968Z,35.88
2022-12-11T10:44:31.328Z,32.65
2022-12-11T10:47:12.002Z,42.80
2022-12-11T10:49:53.109Z,33.95
2022-12-11T10:52:35.072Z,30.77
2022-12-11T10:55:19.317Z,32.67
2022-12-11T10:58:06.762Z,57.47
2022-12-11T11:00:39.608Z,79.07
2022-12-11T11:03:26.534Z,34.00
2022-12-11T11:06:14.694Z,29.60
2022-12-11T11:08:55.615Z,31.70
2022-12-11T11:11:34.494Z,30.40
2022-12-11T11:14:05.960Z,30.13
2022-12-11T11:16:38.893Z,35.30
2022-12-11T11:19:07.554Z,32.33
2022-12-11T11:21:35.964Z,32.17
2022-12-11T11:24:04.191Z,31.50
2022-12-11T11:27:04.781Z,32.97
2022-12-11T11:29:30.901Z,35.90
2022-12-11T11:32:20.151Z,36.45
2022-12-11T11:34:47.670Z,34.20
2022-12-11T11:37:31.411Z,31.75
2022-12-11T11:40:13.444Z,33.95
2022-12-11T11:43:01.230Z,30.45
2022-12-11T11:45:43.252Z,26.70
2022-12-11T11:48:30.504Z,27.45
2022-12-11T11:50:58.615Z,28.92
2022-12-11T11:53:37.243Z,25.95
2022-12-11T11:56:28.748Z,29.42
2022-12-11T11:59:05.236Z,27.00
2022-12-11T12:01:33.162Z,26.33
2022-12-11T12:04:04.197Z,26.00
2022-12-11T12:06:51.018Z,28.50
2022-12-11T12:09:54.909Z,25.50
2022-12-11T12:12:49.347Z,25.73
2022-12-11T12:15:59.410Z,28.33
2022-12-11T12:18:59.990Z,26.30
2022-12-11T12:21:37.606Z,25.98
2022-12-11T12:24:28.466Z,28.33
2022-12-11T12:27:50.635Z,28.67
2022-12-11T12:30:35.374Z,27.80
2022-12-11T12:33:31.063Z,27.35
2022-12-11T12:36:17.044Z,27.88
2022-12-11T12:39:16.392Z,26.92
2022-12-11T12:42:14.368Z,26.67
2022-12-11T12:45:03.672Z,26.35
2022-12-11T12:47:35.181Z,28.50
2022-12-11T12:50:05.036Z,26.10
2022-12-11T12:52:40.283Z,25.55
2022-12-11T12:55:14.096Z,28.48
2022-12-11T12:57:48.590Z,27.90
2022-12-11T13:00:37.596Z,28.02
2022-12-11T13:03:21.072Z,26.73
2022-12-11T13:06:09.555Z,29.52
2022-12-11T13:08:50.843Z,26.38
2022-12-11T13:11:21.422Z,25.67
2022-12-11T13:14:07.998Z,22.92
2022-12-11T13:16:43.616Z,25.35
2022-12-11T13:19:23.055Z,26.42
2022-12-11T13:22:12.208Z,25.83
2022-12-11T13:24:51.728Z,27.00
2022-12-11T13:27:29.778Z,27.45
2022-12-11T13:30:15.282Z,26.90
2022-12-11T13:32:52.552Z,26.35
2022-12-11T13:35:20.740Z,28.42
2022-12-11T13:37:54.113Z,29.05
2022-12-11T13:40:27.647Z,29.08
2022-12-11T13:43:04.074Z,28.35
2022-12-11T13:45:48.682Z,26.10
2022-12-11T13:48:27.915Z,28.73
2022-12-11T13:50:58.995Z,25.92
2022-12-11T13:53:26.533Z,25.48
2022-12-11T13:56:07.739Z,28.33
2022-12-11T13:58:39.161Z,29.83
2022-12-11T14:01:16.957Z,28.30
2022-12-11T14:04:09.405Z,28.70
2022-12-11T14:06:39.731Z,28.38
2022-12-11T14:09:09.143Z,28.38
2022-12-11T14:11:41.532Z,26.30
2022-12-11T14:14:41.202Z,28.58
2022-12-11T14:17:26.946Z,28.50
2022-12-11T14:19:59.290Z,26.17
2022-12-11T14:22:29.822Z,27.23
2022-12-11T14:25:03.572Z,26.52
2022-12-11T14:27:31.276Z,29.13
2022-12-11T14:30:10.637Z,28.67
2022-12-11T14:32:45.177Z,27.02
2022-12-11T14:35:30.156Z,27.60
2022-12-11T14:38:09.056Z,26.33
2022-12-11T14:40:43.598Z,28.40
2022-12-11T14:43:25.879Z,27.95
2022-12-11T14:46:00.740Z,29.33
2022-12-11T14:48:35.354Z,29.90
2022-12-11T14:51:10.760Z,31.10
2022-12-11T14:53:46.484Z,55.58
2022-12-11T14:56:28.990Z,90.93
2022-12-11T14:59:09.109Z,42.78
2022-12-11T15:01:38.605Z,36.13
2022-12-11T15:04:23.617Z,27.13
2022-12-11T15:06:52.147Z,29.98
2022-12-11T15:09:38.437Z,28.42
2022-12-11T15:12:15.050Z,30.38
2022-12-11T15:14:51.582Z,25.65
2022-12-11T15:17:20.792Z,29.75
2022-12-11T15:20:02.672Z,30.30
2022-12-11T15:25:00.669Z,26.85
2022-12-11T15:27:27.946Z,29.88
2022-12-11T15:29:55.511Z,27.55
2022-12-11T15:32:24.168Z,27.88
2022-12-11T15:35:00.126Z,27.10
2022-12-11T15:37:38.439Z,27.73
2022-12-11T15:40:07.653Z,26.63
2022-12-11T15:42:41.966Z,27.25
2022-12-11T15:45:18.916Z,24.35
2022-12-11T15:47:48.077Z,25.63
2022-12-11T15:50:26.132Z,24.45
2022-12-11T15:52:55.456Z,27.58
2022-12-11T15:55:27.212Z,25.90
2022-12-11T16:00:27.996Z,26.63
2022-12-11T16:02:57.850Z,25.00
2022-12-11T16:05:26.831Z,24.15
2022-12-11T16:07:56.346Z,24.25
2022-12-11T16:10:23.775Z,27.25
2022-12-11T16:12:51.187Z,24.45
2022-12-11T16:15:23.564Z,25.35
2022-12-11T16:18:01.224Z,26.73
2022-12-11T16:20:30.982Z,26.95
2022-12-11T16:22:59.704Z,30.23
2022-12-11T16:25:28.057Z,28.38
2022-12-11T16:28:00.695Z,29.50
2022-12-11T16:30:29.535Z,27.80
2022-12-11T16:32:57.212Z,26.13
2022-12-11T16:35:24.642Z,27.45
2022-12-11T16:37:54.107Z,26.00
2022-12-11T16:40:22.842Z,25.35
2022-12-11T16:42:50.595Z,25.73
2022-12-11T16:45:25.640Z,25.25
2022-12-11T16:47:53.340Z,25.90
2022-12-11T16:50:21.124Z,27.50
2022-12-11T16:52:48.535Z,27.02
2022-12-11T16:55:16.021Z,26.05
2022-12-11T16:57:43.434Z,28.92
2022-12-11T17:00:14.425Z,26.27
2022-12-11T17:02:42.011Z,26.00
2022-12-11T17:05:10.021Z,26.48
2022-12-11T17:07:38.244Z,27.00
2022-12-11T17:10:06.412Z,25.58
2022-12-11T17:12:33.997Z,26.02
2022-12-11T17:15:01.504Z,28.63
2022-12-11T17:17:28.919Z,27.58
2022-12-11T17:19:56.492Z,25.65
2022-12-11T17:22:23.894Z,28.25
2022-12-11T17:24:51.357Z,27.60
2022-12-11T17:27:18.745Z,38.92
2022-12-11T17:29:49.373Z,43.90
2022-12-11T17:32:17.661Z,30.48
2022-12-11T17:34:48.140Z,29.90
2022-12-11T17:37:15.862Z,31.08
2022-12-11T17:39:43.672Z,32.97
2022-12-11T17:42:11.132Z,28.88
2022-12-11T17:44:38.879Z,31.17
2022-12-11T17:47:11.110Z,32.63
2022-12-11T17:49:40.461Z,29.98
2022-12-11T17:52:08.178Z,33.92
2022-12-11T17:54:35.636Z,26.42
2022-12-11T17:57:03.153Z,30.58
2022-12-11T17:59:30.542Z,29.45
2022-12-11T18:01:58.200Z,30.77
2022-12-11T18:04:25.689Z,29.08
2022-12-11T18:06:53.309Z,29.77
2022-12-11T18:09:20.718Z,31.10
2022-12-11T18:11:48.194Z,31.15
2022-12-11T18:14:17.552Z,33.55
2022-12-11T18:16:45.255Z,29.10
2022-12-11T18:19:14.592Z,31.58
2022-12-11T18:21:45.608Z,38.40
2022-12-11T18:24:13.059Z,40.23
2022-12-11T18:26:42.880Z,44.38
2022-12-11T18:29:10.611Z,39.08
2022-12-11T18:31:42.603Z,33.25
2022-12-11T18:34:10.995Z,32.78
2022-12-11T18:36:40.604Z,32.83
2022-12-11T18:39:08.046Z,33.42
2022-12-11T18:41:35.460Z,31.60
2022-12-11T18:44:09.273Z,35.22
2022-12-11T18:46:39.311Z,32.75
2022-12-11T18:49:07.034Z,31.00
2022-12-11T18:51:34.490Z,29.80
2022-12-11T18:54:01.922Z,31.88
2022-12-11T18:56:29.359Z,32.75
2022-12-11T18:58:56.751Z,32.38
2022-12-11T19:01:28.878Z,29.52
2022-12-11T19:04:03.616Z,32.67
2022-12-11T19:06:35.700Z,71.53
2022-12-11T19:09:07.405Z,298.55
2022-12-11T19:11:39.796Z,342.00
2022-12-11T19:16:39.517Z,145.35
2022-12-11T19:19:13.084Z,56.78
2022-12-11T19:21:42.206Z,37.10
2022-12-11T19:24:16.277Z,32.97
2022-12-11T19:26:44.425Z,32.28
2022-12-11T19:29:28.676Z,34.97
2022-12-11T19:31:56.611Z,33.33
2022-12-11T19:34:24.408Z,29.60
2022-12-11T19:36:52.105Z,31.35
2022-12-11T19:39:20.035Z,31.42
2022-12-11T19:41:48.939Z,32.17
2022-12-11T19:44:16.320Z,32.17
2022-12-11T19:46:43.738Z,31.35
2022-12-11T19:49:12.332Z,28.60
2022-12-11T19:51:42.338Z,29.95
2022-12-11T19:54:13.816Z,30.20
2022-12-11T19:56:42.471Z,30.17
2022-12-11T19:59:16.533Z,30.77
2022-12-11T20:01:48.052Z,28.52
2022-12-11T20:06:46.744Z,29.92
2022-12-11T20:09:15.435Z,31.77
2022-12-11T20:11:45.406Z,30.00
2022-12-11T20:14:22.483Z,29.08
2022-12-11T20:17:10.902Z,32.33
2022-12-11T20:19:40.597Z,30.40
2022-12-11T20:22:09.186Z,30.45
2022-12-11T20:24:39.885Z,32.20
2022-12-11T20:27:09.581Z,33.00
2022-12-11T20:29:37.862Z,32.58
2022-12-11T20:32:05.582Z,30.10
2022-12-11T20:34:33.134Z,33.97
2022-12-11T20:37:00.581Z,29.65
2022-12-11T20:39:29.036Z,31.10
2022-12-11T20:41:56.466Z,117.28
2022-12-11T20:44:26.846Z,55.55
2022-12-11T20:46:54.638Z,80.40
2022-12-11T20:49:22.062Z,34.65
2022-12-11T20:51:49.471Z,34.58
2022-12-11T20:54:16.928Z,32.30
2022-12-11T20:56:44.561Z,32.90
2022-12-11T20:59:12.260Z,30.13
2022-12-11T21:01:40.905Z,33.30
2022-12-11T21:04:08.768Z,30.10
2022-12-11T21:06:40.531Z,31.58
2022-12-11T21:11:40.651Z,30.98
2022-12-11T21:14:08.070Z,28.98
2022-12-11T21:16:37.750Z,30.88
2022-12-11T21:19:06.680Z,29.52
2022-12-11T21:21:42.574Z,27.90
2022-12-11T21:24:28.312Z,30.20
2022-12-11T21:26:58.420Z,26.80
2022-12-11T21:29:29.361Z,28.98
2022-12-11T21:31:57.410Z,27.60
2022-12-11T21:34:25.709Z,25.50
2022-12-11T21:36:56.738Z,29.60
2022-12-11T21:39:28.236Z,27.45
2022-12-11T21:41:55.914Z,45.05
2022-12-11T21:47:10.928Z,27.88
2022-12-11T21:49:38.477Z,31.20
2022-12-11T21:52:06.139Z,29.27
2022-12-11T21:54:33.942Z,27.48
2022-12-11T21:57:01.518Z,25.05
2022-12-11T21:59:29.852Z,25.60
2022-12-11T22:01:57.283Z,25.88
2022-12-11T22:04:24.752Z,25.65
2022-12-11T22:06:52.266Z,26.50
2022-12-11T22:09:19.669Z,26.55
2022-12-11T22:11:47.858Z,27.90
2022-12-11T22:14:17.755Z,26.70
2022-12-11T22:16:45.997Z,27.30
2022-12-11T22:19:13.716Z,27.83
2022-12-11T22:21:41.590Z,27.38
2022-12-11T22:24:09.245Z,26.70
2022-12-11T22:26:36.709Z,29.30
2022-12-11T22:29:04.100Z,28.00
2022-12-11T22:31:31.609Z,28.23
2022-12-11T22:33:59.045Z,25.95
2022-12-11T22:36:27.314Z,25.02
2022-12-11T22:38:55.506Z,26.25
2022-12-11T22:41:30.166Z,27.45
2022-12-11T22:43:58.852Z,25.98
2022-12-11T22:46:30.457Z,27.02
2022-12-11T22:48:58.606Z,27.10
2022-12-11T22:51:26.244Z,27.30
2022-12-11T22:53:53.708Z,27.55
2022-12-11T22:56:21.383Z,27.35
2022-12-11T22:58:48.923Z,27.33
2022-12-11T23:01:21.603Z,28.90
2022-12-11T23:03:49.366Z,26.10
2022-12-11T23:06:20.618Z,29.55
2022-12-11T23:08:48.057Z,29.98
2022-12-11T23:11:24.355Z,24.80
2022-12-11T23:13:52.810Z,32.08
2022-12-11T23:16:22.247Z,29.58
2022-12-11T23:18:49.849Z,26.95
2022-12-11T23:21:17.564Z,28.75
2022-12-11T23:23:45.051Z,28.05
2022-12-11T23:26:15.148Z,27.05
2022-12-11T23:28:42.983Z,27.98
2022-12-11T23:31:11.810Z,27.52
2022-12-11T23:33:39.732Z,28.80
2022-12-11T23:36:08.744Z,27.13
2022-12-11T23:38:36.549Z,28.38
2022-12-11T23:41:08.299Z,29.00
2022-12-11T23:43:37.110Z,30.00
2022-12-11T23:46:12.477Z,28.83
2022-12-11T23:48:40.223Z,27.38
2022-12-11T23:51:09.702Z,30.08
2022-12-11T23:53:37.205Z,30.33
2022-12-11T23:56:11.093Z,26.45
2022-12-11T23:58:39.228Z,28.33
